Time;durP1;ratioP1;P1;durP2;ratioP2;P2;SDS_P1;SDS_P2;PMS_P1;PMS_P2;Temp;Humidity;BMP_temperature;BMP_pressure;BME280_temperature;BME280_humidity;BME280_pressure;Samples;Min_cycle;Max_cycle;Signal;HPM_P1;HPM_P2
2024/02/15 00:01:05;;;;;;;8.25;4.90;;;21.60;53.50;;;;;;5075429;28;20031;-65
2024/02/15 00:03:35;;;;;;;9.13;4.95;;;21.60;53.40;;;;;;5080060;28;20460;-65
2024/02/15 00:06:01;;;;;;;8.35;4.80;;;21.60;53.40;;;;;;5082117;28;20024;-66
2024/02/15 00:08:26;;;;;;;7.03;4.70;;;21.70;53.40;;;;;;5062224;28;20372;-65
2024/02/15 00:10:53;;;;;;;8.18;4.63;;;21.70;53.30;;;;;;5077775;28;20040;-65
2024/02/15 00:13:19;;;;;;;6.22;4.22;;;21.70;53.30;;;;;;5080610;28;20024;-65
2024/02/15 00:15:48;;;;;;;7.50;4.22;;;21.80;53.30;;;;;;5078100;28;20111;-65
2024/02/15 00:18:14;;;;;;;7.10;4.30;;;21.80;53.20;;;;;;5078770;28;20020;-66
2024/02/15 00:20:39;;;;;;;7.05;4.50;;;21.80;53.30;;;;;;5095352;28;20528;-64
2024/02/15 00:23:06;;;;;;;5.82;3.88;;;21.80;53.20;;;;;;5080351;28;20028;-64
2024/02/15 00:25:32;;;;;;;5.72;3.55;;;21.80;53.40;;;;;;5079731;28;20392;-64
2024/02/15 00:28:00;;;;;;;5.75;3.70;;;21.80;53.20;;;;;;5079072;28;20027;-64
2024/02/15 00:30:27;;;;;;;5.88;3.75;;;21.80;53.20;;;;;;5077818;28;20089;-64
2024/02/15 00:32:52;;;;;;;6.72;3.70;;;21.80;53.50;;;;;;5078109;28;20077;-65
2024/02/15 00:35:18;;;;;;;7.15;4.00;;;21.80;53.40;;;;;;5078379;28;20033;-64
2024/02/15 00:37:45;;;;;;;6.03;3.83;;;21.80;53.30;;;;;;5078019;28;20021;-64
2024/02/15 00:40:11;;;;;;;4.82;2.97;;;21.80;53.20;;;;;;5077371;28;20028;-64
2024/02/15 00:42:36;;;;;;;5.65;3.17;;;21.80;53.20;;;;;;5079486;28;20028;-65
2024/02/15 00:45:03;;;;;;;5.43;3.20;;;21.80;53.20;;;;;;5077099;28;20024;-65
2024/02/15 00:47:29;;;;;;;5.32;3.05;;;21.80;53.10;;;;;;5078822;28;20031;-64
2024/02/15 00:49:54;;;;;;;4.80;3.05;;;21.80;53.10;;;;;;5080335;28;20024;-65
2024/02/15 00:52:20;;;;;;;5.40;3.03;;;21.80;53.00;;;;;;5078283;28;20392;-64
2024/02/15 00:54:46;;;;;;;4.85;3.03;;;21.80;53.00;;;;;;5076896;28;20135;-64
2024/02/15 00:57:12;;;;;;;5.00;2.90;;;21.80;53.00;;;;;;5078011;28;20476;-64
2024/02/15 00:59:37;;;;;;;4.53;2.95;;;21.70;52.90;;;;;;5076572;28;20082;-65
2024/02/15 01:02:05;;;;;;;4.13;2.45;;;21.70;52.90;;;;;;5079265;28;20039;-64
2024/02/15 01:04:30;;;;;;;3.88;2.42;;;21.70;52.90;;;;;;5078209;28;20043;-64
2024/02/15 01:06:56;;;;;;;4.50;2.72;;;21.70;52.80;;;;;;5082258;28;20036;-65
2024/02/15 01:09:22;;;;;;;5.28;2.70;;;21.70;52.90;;;;;;5078958;28;20115;-64
2024/02/15 01:11:48;;;;;;;4.75;2.72;;;21.70;52.80;;;;;;5079430;28;20032;-65
2024/02/15 01:14:15;;;;;;;5.10;2.50;;;21.70;52.80;;;;;;5076503;28;20029;-64
2024/02/15 01:16:44;;;;;;;3.97;2.50;;;21.70;52.80;;;;;;5060271;28;20106;-64
2024/02/15 01:19:10;;;;;;;4.38;2.40;;;21.70;52.80;;;;;;5059402;28;20032;-64
2024/02/15 01:21:36;;;;;;;3.75;2.38;;;21.70;52.70;;;;;;5080155;28;20085;-66
2024/02/15 01:24:03;;;;;;;4.75;2.55;;;21.70;52.80;;;;;;5081685;28;20028;-64
2024/02/15 01:26:29;;;;;;;3.88;2.33;;;21.70;52.70;;;;;;5084026;28;20400;-64
2024/02/15 01:28:55;;;;;;;4.03;2.78;;;21.70;52.70;;;;;;5082829;28;20039;-65
2024/02/15 01:31:21;;;;;;;4.55;2.67;;;21.60;52.70;;;;;;5082879;28;20055;-63
2024/02/15 01:33:46;;;;;;;4.15;2.90;;;21.70;52.70;;;;;;5082863;28;20495;-63
2024/02/15 01:36:16;;;;;;;4.60;2.63;;;21.60;52.70;;;;;;5083332;28;20123;-64
2024/02/15 01:38:42;;;;;;;;;;;21.60;52.60;;;;;;5084748;28;20077;-62
2024/02/15 01:41:08;;;;;;;3.55;2.45;;;21.60;52.60;;;;;;5082691;28;20403;-69
2024/02/15 01:43:34;;;;;;;4.50;2.60;;;21.60;52.60;;;;;;5083039;28;20108;-69
2024/02/15 01:46:03;;;;;;;4.03;2.28;;;21.60;52.60;;;;;;5082351;28;20186;-69
2024/02/15 01:48:32;;;;;;;4.63;2.40;;;21.60;53.10;;;;;;5074665;28;20027;-68
2024/02/15 01:50:58;;;;;;;3.92;2.70;;;21.60;52.60;;;;;;5074292;28;20063;-64
2024/02/15 01:53:25;;;;;;;4.63;2.70;;;21.60;52.60;;;;;;5079901;28;20039;-63
2024/02/15 01:55:54;;;;;;;3.72;2.25;;;21.60;52.60;;;;;;5081194;28;20381;-64
2024/02/15 01:58:20;;;;;;;5.83;2.70;;;21.60;52.60;;;;;;5079034;28;20112;-63
2024/02/15 02:00:46;;;;;;;4.07;2.53;;;21.60;52.60;;;;;;5096493;28;20349;-64
2024/02/15 02:03:14;;;;;;;3.63;2.25;;;21.60;52.60;;;;;;5080337;28;20024;-63
2024/02/15 02:05:41;;;;;;;4.15;2.63;;;21.60;52.60;;;;;;5083208;28;20472;-63
2024/02/15 02:08:09;;;;;;;4.38;2.60;;;21.60;52.60;;;;;;5080050;28;20594;-63
2024/02/15 02:10:36;;;;;;;3.28;2.03;;;21.60;52.60;;;;;;5082143;28;20029;-65
2024/02/15 02:13:02;;;;;;;3.97;2.20;;;21.60;52.60;;;;;;5082943;28;20077;-64
2024/02/15 02:15:31;;;;;;;3.90;2.45;;;21.50;52.50;;;;;;5081745;28;20025;-63
2024/02/15 02:17:58;;;;;;;3.53;2.20;;;21.50;52.50;;;;;;5079241;28;20416;-63
2024/02/15 02:20:25;;;;;;;4.03;2.28;;;21.50;52.50;;;;;;5081920;28;20031;-65
2024/02/15 02:22:54;;;;;;;3.72;2.17;;;21.50;52.50;;;;;;5081576;28;20457;-64
2024/02/15 02:25:20;;;;;;;3.60;2.22;;;21.50;52.50;;;;;;5082457;28;20025;-65
2024/02/15 02:27:48;;;;;;;3.95;2.30;;;21.50;52.50;;;;;;5081025;28;20099;-64
2024/02/15 02:30:17;;;;;;;4.75;2.25;;;21.50;52.50;;;;;;5081096;28;20029;-65
2024/02/15 02:32:43;;;;;;;3.50;2.20;;;21.50;52.50;;;;;;5079941;28;20016;-64
2024/02/15 02:35:11;;;;;;;3.65;2.10;;;21.50;53.00;;;;;;5079810;28;20515;-64
2024/02/15 02:37:40;;;;;;;3.47;2.17;;;21.50;52.50;;;;;;5083141;28;20040;-65
2024/02/15 02:40:08;;;;;;;4.10;2.20;;;21.50;52.50;;;;;;5082279;28;20353;-65
2024/02/15 02:42:46;;;;;;;4.97;2.40;;;21.50;52.50;;;;;;5081308;28;20825;-64
2024/02/15 02:45:11;;;;;;;3.65;2.10;;;21.40;52.50;;;;;;5080041;28;20027;-64
2024/02/15 02:47:37;;;;;;;5.25;2.50;;;21.40;52.40;;;;;;5083006;28;20029;-64
2024/02/15 02:50:03;;;;;;;3.80;2.20;;;21.50;52.50;;;;;;5081546;28;20029;-63
2024/02/15 02:52:28;;;;;;;3.90;2.10;;;21.50;52.50;;;;;;5083709;28;20021;-63
2024/02/15 02:54:54;;;;;;;3.83;2.10;;;21.40;52.40;;;;;;5082245;28;20070;-65
2024/02/15 02:57:20;;;;;;;3.30;2.00;;;21.40;52.40;;;;;;5080679;28;20082;-63
2024/02/15 02:59:47;;;;;;;3.30;1.90;;;21.40;52.40;;;;;;5080863;28;20468;-64
2024/02/15 03:02:13;;;;;;;3.20;1.88;;;21.40;52.40;;;;;;5080714;28;20032;-63
2024/02/15 03:04:39;;;;;;;3.67;2.10;;;21.40;52.40;;;;;;5079338;28;20020;-63
2024/02/15 03:07:05;;;;;;;3.03;2.03;;;21.40;52.70;;;;;;5062334;28;20059;-63
2024/02/15 03:09:31;;;;;;;4.07;2.10;;;21.40;52.40;;;;;;5081414;28;20055;-64
2024/02/15 03:11:57;;;;;;;3.47;1.98;;;21.40;52.40;;;;;;5079142;28;20039;-65
2024/02/15 03:14:22;;;;;;;4.03;2.00;;;21.40;52.40;;;;;;5081903;28;20028;-63
2024/02/15 03:16:48;;;;;;;3.20;1.83;;;21.40;52.40;;;;;;5080440;28;20021;-64
2024/02/15 03:19:14;;;;;;;3.40;1.90;;;21.40;52.40;;;;;;5076925;28;20028;-64
2024/02/15 03:21:41;;;;;;;3.03;2.05;;;21.30;52.40;;;;;;5080604;28;20487;-63
2024/02/15 03:24:07;;;;;;;3.03;1.75;;;21.40;52.40;;;;;;5080131;28;20552;-63
2024/02/15 03:26:40;;;;;;;2.95;1.90;;;21.40;52.40;;;;;;5080593;28;20028;-63
2024/02/15 03:29:07;;;;;;;3.53;1.90;;;21.30;52.40;;;;;;5079627;28;20966;-65
2024/02/15 03:31:35;;;;;;;3.03;1.88;;;21.30;52.40;;;;;;5078352;28;20024;-66
2024/02/15 03:34:01;;;;;;;4.32;2.20;;;21.30;52.40;;;;;;5078104;28;20024;-67
2024/02/15 03:36:29;;;;;;;2.58;1.65;;;21.30;52.40;;;;;;5078830;28;20070;-66
2024/02/15 03:38:54;;;;;;;3.08;1.88;;;21.30;52.40;;;;;;5080916;28;20066;-66
2024/02/15 03:41:20;;;;;;;2.92;1.92;;;21.30;52.40;;;;;;5079446;28;20029;-66
2024/02/15 03:43:49;;;;;;;2.42;1.52;;;21.30;52.30;;;;;;5080309;28;20365;-66
2024/02/15 03:46:14;;;;;;;2.97;1.77;;;21.30;52.30;;;;;;5077153;28;20031;-66
2024/02/15 03:48:46;;;;;;;2.90;1.77;;;21.30;52.30;;;;;;5078386;28;20032;-66
2024/02/15 03:51:18;;;;;;;3.03;1.88;;;21.30;52.30;;;;;;5078821;28;20075;-68
2024/02/15 03:53:44;;;;;;;3.30;1.90;;;21.30;52.40;;;;;;5052337;28;20439;-68
2024/02/15 03:56:09;;;;;;;2.95;1.80;;;21.30;52.40;;;;;;5075769;28;20021;-69
2024/02/15 03:58:36;;;;;;;3.95;1.80;;;21.30;52.40;;;;;;5069874;28;20028;-69
2024/02/15 04:01:04;;;;;;;3.00;1.73;;;21.30;52.40;;;;;;5078972;28;20092;-68
2024/02/15 04:03:32;;;;;;;3.47;1.67;;;21.30;52.40;;;;;;5081853;28;20503;-69
2024/02/15 04:05:58;;;;;;;2.55;1.73;;;21.20;52.30;;;;;;5062700;28;20067;-69
2024/02/15 04:08:23;;;;;;;2.70;1.70;;;21.20;52.80;;;;;;5072360;28;20048;-69
2024/02/15 04:10:49;;;;;;;3.05;1.60;;;21.20;52.30;;;;;;5080069;28;20063;-65
2024/02/15 04:13:15;;;;;;;3.10;1.73;;;21.20;52.30;;;;;;5080087;28;20504;-64
2024/02/15 04:15:41;;;;;;;3.10;1.70;;;21.20;52.30;;;;;;5078203;28;20025;-65
2024/02/15 04:18:08;;;;;;;3.58;1.83;;;21.20;52.90;;;;;;5078182;28;20045;-65
2024/02/15 04:20:33;;;;;;;3.13;1.85;;;21.20;52.30;;;;;;5076944;28;20037;-64
2024/02/15 04:22:59;;;;;;;3.05;1.75;;;21.20;52.40;;;;;;5077893;28;20028;-64
2024/02/15 04:25:27;;;;;;;3.10;1.83;;;21.20;52.40;;;;;;5079519;28;20020;-64
2024/02/15 04:27:53;;;;;;;3.00;1.80;;;21.20;52.40;;;;;;5069637;28;20472;-64
2024/02/15 04:30:19;;;;;;;3.20;2.00;;;21.20;52.90;;;;;;5077604;28;20036;-64
2024/02/15 04:32:46;;;;;;;3.10;1.75;;;21.20;52.40;;;;;;5077575;28;20562;-65
2024/02/15 04:35:14;;;;;;;2.60;1.55;;;21.20;52.40;;;;;;5079748;28;20052;-64
2024/02/15 04:37:40;;;;;;;2.83;1.70;;;21.20;52.40;;;;;;5080277;28;20069;-64
2024/02/15 04:40:13;;;;;;;2.90;1.73;;;21.20;52.90;;;;;;5079480;28;20361;-64
2024/02/15 04:42:39;;;;;;;3.08;1.77;;;21.10;52.40;;;;;;5080815;28;20112;-65
2024/02/15 04:45:10;;;;;;;2.38;1.42;;;21.20;52.40;;;;;;5079178;28;20095;-65
2024/02/15 04:47:36;;;;;;;3.22;1.60;;;21.10;52.30;;;;;;5058831;28;20033;-64
2024/02/15 04:50:02;;;;;;;2.60;1.55;;;21.10;52.30;;;;;;5077540;28;20039;-65
2024/02/15 04:52:28;;;;;;;3.47;1.70;;;21.10;52.40;;;;;;5079103;28;20035;-64
2024/02/15 04:54:54;;;;;;;2.45;1.60;;;21.10;52.30;;;;;;5078845;28;20099;-65
2024/02/15 04:57:20;;;;;;;2.55;1.65;;;21.10;52.40;;;;;;5078673;28;20028;-64
2024/02/15 04:59:48;;;;;;;2.60;1.70;;;21.10;52.40;;;;;;5069765;28;20028;-64
2024/02/15 05:02:14;;;;;;;2.60;1.67;;;21.10;52.30;;;;;;5076804;28;20019;-67
2024/02/15 05:04:42;;;;;;;2.75;1.80;;;21.10;52.40;;;;;;5079700;28;20029;-67
2024/02/15 05:07:08;;;;;;;2.83;1.70;;;21.10;52.40;;;;;;5077898;28;20433;-66
2024/02/15 05:09:34;;;;;;;2.78;1.50;;;21.10;52.40;;;;;;5077854;28;20059;-66
2024/02/15 05:12:02;;;;;;;3.15;1.70;;;21.10;52.30;;;;;;5079786;28;20071;-67
2024/02/15 05:14:31;;;;;;;2.90;1.73;;;21.10;52.40;;;;;;5075856;28;20021;-66
2024/02/15 05:16:56;;;;;;;3.22;1.90;;;21.10;52.40;;;;;;5077028;28;20403;-67
2024/02/15 05:19:23;;;;;;;2.72;1.60;;;21.10;52.40;;;;;;5079175;28;20032;-66
2024/02/15 05:21:49;;;;;;;2.45;1.40;;;21.10;52.40;;;;;;5069290;28;20028;-64
2024/02/15 05:24:15;;;;;;;2.47;1.70;;;21.10;52.40;;;;;;5078316;28;20047;-65
2024/02/15 05:26:43;;;;;;;2.40;1.50;;;21.10;52.40;;;;;;5077258;28;20036;-64
2024/02/15 05:29:11;;;;;;;2.65;1.70;;;21.10;52.40;;;;;;5077395;28;20120;-65
2024/02/15 05:31:37;;;;;;;3.03;1.50;;;21.10;52.40;;;;;;5075314;28;20025;-65
2024/02/15 05:34:07;;;;;;;2.45;1.42;;;21.10;52.40;;;;;;5079781;28;20032;-66
2024/02/15 05:36:33;;;;;;;;;;;21.10;52.40;;;;;;5078700;28;20021;-65
2024/02/15 05:38:59;;;;;;;2.50;1.50;;;21.10;52.30;;;;;;5079587;28;20357;-65
2024/02/15 05:41:25;;;;;;;2.50;1.50;;;21.00;52.30;;;;;;5069266;28;20106;-65
2024/02/15 05:43:54;;;;;;;2.25;1.52;;;21.00;52.30;;;;;;5069427;28;20115;-64
2024/02/15 05:46:21;;;;;;;2.63;1.50;;;21.00;52.30;;;;;;5067240;28;20027;-65
2024/02/15 05:48:47;;;;;;;2.58;1.50;;;21.00;52.30;;;;;;5068430;28;20456;-65
2024/02/15 05:51:13;;;;;;;3.80;1.90;;;21.00;52.30;;;;;;5075945;28;20091;-64
2024/02/15 05:53:38;;;;;;;2.53;1.40;;;21.00;52.40;;;;;;5077701;28;20036;-65
2024/02/15 05:56:06;;;;;;;2.38;1.40;;;21.00;52.40;;;;;;5080084;28;20476;-64
2024/02/15 05:58:32;;;;;;;2.83;1.55;;;21.00;52.40;;;;;;5076124;28;20025;-64
2024/02/15 06:01:01;;;;;;;2.60;1.58;;;21.00;52.30;;;;;;5078493;28;20028;-65
2024/02/15 06:03:32;;;;;;;2.60;1.70;;;21.00;52.40;;;;;;5076757;28;20031;-64
2024/02/15 06:05:59;;;;;;;2.25;1.50;;;21.00;52.40;;;;;;5077496;28;20028;-64
2024/02/15 06:08:31;;;;;;;2.53;1.50;;;21.00;52.40;;;;;;5071931;28;20465;-65
2024/02/15 06:10:57;;;;;;;2.90;1.70;;;21.00;52.30;;;;;;5081220;28;20056;-69
2024/02/15 06:13:23;;;;;;;2.47;1.35;;;21.00;52.30;;;;;;5079879;28;20083;-69
2024/02/15 06:15:52;;;;;;;2.55;1.45;;;21.00;52.40;;;;;;5081024;28;20919;-70
2024/02/15 06:18:29;;;;;;;3.08;1.60;;;21.00;52.40;;;;;;5061970;28;20451;-68
2024/02/15 06:20:59;;;;;;;2.15;1.40;;;21.00;52.30;;;;;;5081893;28;20534;-69
2024/02/15 06:23:27;;;;;;;2.25;1.23;;;21.00;52.40;;;;;;5074013;28;20119;-69
2024/02/15 06:25:54;;;;;;;2.63;1.58;;;21.00;52.40;;;;;;5081756;28;20107;-69
2024/02/15 06:39:46;;;;;;;2.47;1.45;;;21.00;52.40;;;;;;5082909;28;20396;-68
2024/02/15 06:42:18;;;;;;;2.03;1.23;;;21.00;52.40;;;;;;5080377;28;20107;-68
2024/02/15 06:44:44;;;;;;;2.15;1.40;;;20.90;52.40;;;;;;5078473;28;20040;-67
2024/02/15 06:47:11;;;;;;;2.08;1.33;;;20.90;52.40;;;;;;5078878;28;20104;-69
2024/02/15 06:49:40;;;;;;;2.00;1.40;;;20.90;52.80;;;;;;5082200;28;20933;-69
2024/02/15 06:52:11;;;;;;;2.65;1.40;;;20.90;52.40;;;;;;5079840;28;20024;-68
2024/02/15 06:54:39;;;;;;;2.20;1.40;;;20.90;52.40;;;;;;5081261;28;20067;-69
2024/02/15 06:57:05;;;;;;;1.63;1.15;;;20.90;52.30;;;;;;5079281;28;20032;-69
2024/02/15 06:59:32;;;;;;;1.70;1.15;;;20.90;52.30;;;;;;5079628;28;20475;-69
2024/02/15 07:02:01;;;;;;;2.15;1.40;;;20.90;52.40;;;;;;5081171;28;20036;-69
2024/02/15 07:04:27;;;;;;;2.33;1.40;;;20.90;52.40;;;;;;5079402;28;20089;-69
2024/02/15 07:06:56;;;;;;;2.33;1.23;;;20.90;52.40;;;;;;5062465;28;20422;-70
2024/02/15 07:09:24;;;;;;;2.08;1.20;;;20.90;52.30;;;;;;5081498;28;20043;-69
2024/02/15 07:11:52;;;;;;;1.83;1.20;;;20.90;52.40;;;;;;5095896;28;20207;-69
2024/02/15 07:14:18;;;;;;;1.95;1.33;;;20.90;52.40;;;;;;5078518;28;20452;-69
2024/02/15 07:16:47;;;;;;;2.03;1.30;;;20.90;52.30;;;;;;5079647;28;20020;-69
2024/02/15 07:19:13;;;;;;;;;;;20.90;52.40;;;;;;5079570;28;20027;-69
2024/02/15 07:21:39;;;;;;;1.77;1.13;;;20.90;52.40;;;;;;5079359;28;19908;-68
2024/02/15 07:24:05;;;;;;;1.83;1.20;;;20.90;52.40;;;;;;5079876;28;20028;-70
2024/02/15 07:26:31;;;;;;;2.30;1.42;;;20.90;52.40;;;;;;5062401;28;21152;-69
2024/02/15 07:28:57;;;;;;;2.30;1.20;;;20.90;52.40;;;;;;5080865;28;20039;-69
2024/02/15 07:31:27;;;;;;;2.03;1.33;;;20.90;52.40;;;;;;5079816;28;20031;-70
2024/02/15 07:33:53;;;;;;;2.40;1.38;;;20.90;52.40;;;;;;5079001;28;20488;-70
2024/02/15 07:36:23;;;;;;;1.75;1.23;;;20.90;52.40;;;;;;5078683;28;20548;-69
2024/02/15 07:39:00;;;;;;;2.20;1.30;;;20.90;52.40;;;;;;5079132;28;20329;-69
2024/02/15 07:41:27;;;;;;;2.38;1.27;;;20.90;52.40;;;;;;5081106;28;20039;-70
2024/02/15 07:43:55;;;;;;;1.80;1.20;;;20.80;52.40;;;;;;5077475;28;20051;-67
2024/02/15 07:46:21;;;;;;;1.85;1.20;;;20.90;52.40;;;;;;5078611;28;20036;-69
2024/02/15 07:48:47;;;;;;;2.10;1.20;;;20.90;52.40;;;;;;5079572;28;20046;-68
2024/02/15 07:51:15;;;;;;;1.85;1.13;;;20.80;52.40;;;;;;5078348;28;20472;-69
2024/02/15 07:53:42;;;;;;;1.85;1.30;;;20.90;52.40;;;;;;5080152;28;20504;-68
2024/02/15 07:56:10;;;;;;;1.88;1.30;;;20.90;52.40;;;;;;5070462;28;20085;-68
2024/02/15 07:58:39;;;;;;;2.40;1.33;;;20.80;52.30;;;;;;5060635;28;20044;-69
2024/02/15 08:01:05;;;;;;;2.20;1.30;;;20.90;52.40;;;;;;5079689;28;20027;-69
2024/02/15 08:03:31;;;;;;;2.15;1.30;;;20.80;52.40;;;;;;5075314;28;20032;-69
2024/02/15 08:05:56;;;;;;;2.30;1.40;;;20.80;52.40;;;;;;5081082;28;20423;-68
2024/02/15 08:08:22;;;;;;;2.60;1.45;;;20.80;52.40;;;;;;5080097;28;20447;-68
2024/02/15 08:10:51;;;;;;;2.33;1.40;;;20.80;52.40;;;;;;5078883;28;20032;-64
2024/02/15 08:13:17;;;;;;;2.60;1.70;;;20.80;52.40;;;;;;5076975;28;20024;-64
2024/02/15 08:15:44;;;;;;;2.83;1.50;;;20.80;52.40;;;;;;5077782;28;20025;-63
2024/02/15 08:18:12;;;;;;;2.45;1.38;;;20.80;52.40;;;;;;5077352;28;20068;-64
2024/02/15 08:20:40;;;;;;;2.78;1.60;;;20.80;52.40;;;;;;5079547;28;20017;-65
2024/02/15 08:23:06;;;;;;;2.30;1.42;;;20.80;52.50;;;;;;5078043;28;20384;-64
2024/02/15 08:25:32;;;;;;;2.60;1.33;;;20.80;52.40;;;;;;5079964;28;20027;-63
2024/02/15 08:27:57;;;;;;;3.00;1.60;;;20.80;52.40;;;;;;5078846;28;20639;-63
2024/02/15 08:30:23;;;;;;;4.63;1.60;;;20.80;52.40;;;;;;5079328;28;20081;-66
2024/02/15 08:32:48;;;;;;;2.83;1.48;;;20.80;52.50;;;;;;5077821;28;20032;-66
2024/02/15 08:35:15;;;;;;;3.50;1.70;;;20.80;52.50;;;;;;5077452;28;20152;-66
2024/02/15 08:37:42;;;;;;;3.97;1.83;;;20.80;52.50;;;;;;5081048;28;20473;-66
2024/02/15 08:40:11;;;;;;;3.08;1.70;;;20.80;52.50;;;;;;5077615;28;20461;-66
2024/02/15 08:42:40;;;;;;;;;;;20.80;52.50;;;;;;5081578;28;20108;-67
2024/02/15 08:45:08;;;;;;;3.97;1.55;;;20.80;52.50;;;;;;5078375;28;20379;-66
2024/02/15 08:47:39;;;;;;;4.35;1.80;;;20.80;52.50;;;;;;5070406;28;20128;-66
2024/02/15 08:50:06;;;;;;;3.03;1.58;;;20.80;52.50;;;;;;5076819;28;20547;-66
2024/02/15 08:52:32;;;;;;;3.25;1.60;;;20.80;52.50;;;;;;5081122;28;20135;-66
2024/02/15 08:54:59;;;;;;;2.80;1.60;;;20.80;52.50;;;;;;5079128;28;20150;-66
2024/02/15 08:57:24;;;;;;;3.83;1.88;;;20.70;52.50;;;;;;5069405;28;20396;-66
2024/02/15 08:59:51;;;;;;;3.55;1.60;;;20.80;52.50;;;;;;5078720;28;20032;-66
2024/02/15 09:02:18;;;;;;;3.55;1.77;;;20.80;52.60;;;;;;5077434;28;20537;-67
2024/02/15 09:04:43;;;;;;;3.13;1.42;;;20.80;52.60;;;;;;5075660;28;20561;-66
2024/02/15 09:07:09;;;;;;;3.53;1.60;;;20.80;52.60;;;;;;5079255;28;20099;-66
2024/02/15 09:09:36;;;;;;;3.15;1.75;;;20.80;53.10;;;;;;5077353;28;20029;-67
2024/02/15 09:12:06;;;;;;;3.28;1.50;;;20.80;52.60;;;;;;5078369;28;20506;-66
2024/02/15 09:14:36;;;;;;;3.72;1.90;;;20.70;52.50;;;;;;5078769;28;20093;-66
2024/02/15 09:17:07;;;;;;;2.95;1.52;;;20.70;52.50;;;;;;5076863;28;20060;-66
2024/02/15 09:19:36;;;;;;;2.70;1.40;;;20.80;52.60;;;;;;5068071;28;20020;-66
2024/02/15 09:22:06;;;;;;;2.97;1.73;;;20.70;52.50;;;;;;5077872;28;20039;-68
2024/02/15 09:24:33;;;;;;;3.28;1.55;;;20.70;52.50;;;;;;5078332;28;20063;-67
2024/02/15 09:27:00;;;;;;;2.63;1.58;;;20.80;52.60;;;;;;5079328;28;20507;-68
2024/02/15 09:29:29;;;;;;;3.17;1.60;;;20.70;52.50;;;;;;5076326;28;20040;-68
2024/02/15 09:31:56;;;;;;;3.00;1.75;;;20.80;52.60;;;;;;5078656;28;20471;-69
2024/02/15 09:34:22;;;;;;;4.00;1.95;;;20.70;52.50;;;;;;5076124;28;20028;-69
2024/02/15 09:36:47;;;;;;;2.40;1.30;;;20.80;52.60;;;;;;5068617;28;20021;-68
2024/02/15 09:39:14;;;;;;;3.92;1.73;;;20.80;52.60;;;;;;5059894;28;20028;-70
2024/02/15 09:41:42;;;;;;;2.67;1.60;;;20.70;52.50;;;;;;5076848;28;20068;-65
2024/02/15 09:44:08;;;;;;;3.33;1.70;;;20.70;52.50;;;;;;5080825;28;20116;-65
2024/02/15 09:46:44;;;;;;;2.60;1.40;;;20.70;52.80;;;;;;5082427;28;20115;-65
2024/02/15 09:49:11;;;;;;;3.92;1.60;;;20.70;52.50;;;;;;5061292;28;20029;-65
2024/02/15 09:51:39;;;;;;;3.60;1.80;;;20.70;52.50;;;;;;5079275;28;20032;-65
2024/02/15 09:54:05;;;;;;;2.63;1.60;;;20.80;52.60;;;;;;5081718;28;20077;-65
2024/02/15 09:56:33;;;;;;;3.92;1.67;;;20.80;52.50;;;;;;5082717;28;20128;-65
2024/02/15 09:59:00;;;;;;;3.47;1.67;;;20.80;52.50;;;;;;5080639;28;20024;-65
2024/02/15 10:01:30;;;;;;;3.97;1.50;;;20.80;52.50;;;;;;5082847;28;20028;-64
2024/02/15 10:03:59;;;;;;;3.40;1.60;;;20.70;52.40;;;;;;5078884;28;20065;-65
2024/02/15 10:06:25;;;;;;;3.17;1.80;;;20.80;52.40;;;;;;5082071;28;20028;-65
2024/02/15 10:08:50;;;;;;;3.13;1.55;;;20.70;52.40;;;;;;5081018;28;20370;-64
2024/02/15 10:11:16;;;;;;;3.08;1.42;;;20.80;52.40;;;;;;5081293;28;20111;-65
2024/02/15 10:13:44;;;;;;;3.17;1.67;;;20.80;52.40;;;;;;5081700;28;20028;-65
2024/02/15 10:16:24;;;;;;;3.67;1.65;;;20.80;52.40;;;;;;5081346;28;20029;-65
2024/02/15 10:18:50;;;;;;;3.17;1.67;;;20.70;52.30;;;;;;5079304;28;20024;-65
2024/02/15 10:21:30;;;;;;;2.60;1.40;;;20.70;52.30;;;;;;5079558;28;20715;-66
2024/02/15 10:24:23;;;;;;;;;;;20.80;52.40;;;;;;5062544;28;20032;-65
2024/02/15 10:26:49;;;;;;;2.55;1.40;;;20.80;52.40;;;;;;5079169;28;19919;-65
2024/02/15 10:29:17;;;;;;;3.40;1.60;;;20.80;52.40;;;;;;5080190;28;20443;-65
2024/02/15 10:31:56;;;;;;;2.78;1.50;;;20.80;52.30;;;;;;5080644;28;20036;-69
2024/02/15 10:34:23;;;;;;;2.45;1.50;;;20.80;52.30;;;;;;5062451;28;20342;-69
2024/02/15 10:36:49;;;;;;;3.10;1.58;;;20.70;52.20;;;;;;5081846;28;20025;-69
2024/02/15 10:39:20;;;;;;;2.38;1.58;;;20.80;52.30;;;;;;5080349;28;20032;-68
2024/02/15 10:41:51;;;;;;;3.50;1.65;;;20.80;52.30;;;;;;5076082;28;20362;-68
2024/02/15 10:44:22;;;;;;;3.22;1.40;;;20.70;52.20;;;;;;5063314;28;20078;-69
2024/02/15 10:46:52;;;;;;;2.47;1.40;;;20.70;52.20;;;;;;5080996;28;20082;-69
2024/02/15 10:49:25;;;;;;;3.22;1.45;;;20.70;52.10;;;;;;5079572;28;20024;-69
2024/02/15 10:52:04;;;;;;;2.58;1.40;;;20.70;52.10;;;;;;5071981;28;20085;-67
2024/02/15 10:54:51;;;;;;;3.13;1.65;;;20.70;52.60;;;;;;5079047;28;20022;-67
2024/02/15 10:57:24;;;;;;;3.50;1.60;;;20.80;52.10;;;;;;5078946;28;20025;-67
2024/02/15 10:59:57;;;;;;;3.00;1.50;;;20.70;52.00;;;;;;5077965;28;20112;-67
2024/02/15 11:02:36;;;;;;;2.65;1.40;;;20.70;52.00;;;;;;5080236;28;20459;-67
2024/02/15 11:05:04;;;;;;;2.88;1.50;;;20.80;52.00;;;;;;5079083;28;20076;-67
2024/02/15 11:07:31;;;;;;;3.08;1.63;;;20.70;51.90;;;;;;5077351;28;20031;-66
2024/02/15 11:09:58;;;;;;;2.90;1.52;;;20.70;52.00;;;;;;5079720;28;20539;-66
2024/02/15 11:12:28;;;;;;;3.13;1.50;;;20.70;51.90;;;;;;5095926;28;20028;-65
2024/02/15 11:14:54;;;;;;;2.50;1.55;;;20.80;52.00;;;;;;5078933;28;20030;-65
2024/02/15 11:17:43;;;;;;;2.60;1.45;;;20.80;52.00;;;;;;5063456;28;20020;-65
2024/02/15 11:20:34;;;;;;;3.95;1.60;;;20.70;51.90;;;;;;5077637;28;20508;-64
2024/02/15 11:23:01;;;;;;;2.92;1.48;;;20.80;51.90;;;;;;5081895;28;20020;-66
2024/02/15 11:25:42;;;;;;;2.42;1.33;;;20.70;51.90;;;;;;5096480;28;20357;-65
2024/02/15 11:28:23;;;;;;;2.58;1.40;;;20.80;51.90;;;;;;5079486;28;20111;-65
2024/02/15 11:30:49;;;;;;;3.28;1.60;;;20.70;51.90;;;;;;5079588;28;20487;-65
2024/02/15 11:33:27;;;;;;;3.22;1.23;;;20.70;51.90;;;;;;5081394;28;20042;-65
2024/02/15 11:36:09;;;;;;;2.47;1.35;;;20.80;51.90;;;;;;5077802;28;20464;-65
2024/02/15 11:38:36;;;;;;;3.25;1.40;;;20.70;51.90;;;;;;5079100;28;20104;-65
2024/02/15 11:41:06;;;;;;;3.53;1.50;;;20.70;51.90;;;;;;5080944;28;20032;-63
2024/02/15 11:43:49;;;;;;;3.35;1.67;;;20.70;51.90;;;;;;5082085;28;20518;-63
2024/02/15 11:46:19;;;;;;;2.65;1.40;;;20.70;51.90;;;;;;5095524;28;20417;-63
2024/02/15 11:48:48;;;;;;;3.40;1.33;;;20.70;51.90;;;;;;5080204;28;20043;-63
2024/02/15 11:51:27;;;;;;;;;;;20.80;52.00;;;;;;5068503;28;20024;-64
2024/02/15 11:54:07;;;;;;;3.00;1.60;;;20.70;51.90;;;;;;5079473;28;20002;-63
2024/02/15 11:57:13;;;;;;;3.22;1.40;;;20.70;51.90;;;;;;5079824;28;20476;-63
2024/02/15 12:00:12;;;;;;;3.08;1.45;;;20.80;52.00;;;;;;5074409;28;20459;-63
2024/02/15 12:19:21;;;;;;;2.58;1.40;;;20.80;52.10;;;;;;5080755;28;20411;-69
2024/02/15 12:21:48;;;;;;;3.28;1.50;;;20.80;52.10;;;;;;5078747;28;20464;-69
2024/02/15 12:24:14;;;;;;;3.83;1.50;;;20.80;52.60;;;;;;5078793;28;20028;-68
2024/02/15 12:26:41;;;;;;;3.33;1.63;;;20.80;52.10;;;;;;5079185;28;20457;-68
2024/02/15 12:29:08;;;;;;;3.80;1.40;;;20.80;52.10;;;;;;5079297;28;20024;-68
2024/02/15 12:31:38;;;;;;;3.55;1.40;;;20.80;52.10;;;;;;5079699;28;20040;-67
2024/02/15 12:34:07;;;;;;;2.35;1.30;;;20.80;52.20;;;;;;5080401;28;20629;-67
2024/02/15 12:36:36;;;;;;;2.97;1.65;;;20.80;52.60;;;;;;5076751;28;20624;-67
2024/02/15 12:39:16;;;;;;;3.38;1.40;;;20.80;52.10;;;;;;5079948;28;20368;-69
2024/02/15 12:41:49;;;;;;;3.05;1.40;;;20.80;52.10;;;;;;5078858;28;20028;-68
2024/02/15 12:44:22;;;;;;;2.80;1.42;;;20.80;52.60;;;;;;5078295;28;20032;-68
2024/02/15 12:46:55;;;;;;;3.38;1.50;;;20.80;52.10;;;;;;5076803;28;20072;-69
2024/02/15 12:49:20;;;;;;;4.00;1.40;;;20.80;52.20;;;;;;5079282;28;20059;-69
2024/02/15 12:52:13;;;;;;;4.13;2.08;;;20.80;52.10;;;;;;5077399;28;20097;-69
2024/02/15 12:54:40;;;;;;;3.03;1.30;;;20.80;52.20;;;;;;5059260;28;20024;-69
2024/02/15 12:57:13;;;;;;;2.85;1.40;;;20.80;52.10;;;;;;5070957;28;20027;-69
2024/02/15 12:59:39;;;;;;;2.92;1.38;;;20.80;52.20;;;;;;5078365;28;20388;-70
2024/02/15 13:02:05;;;;;;;3.00;1.50;;;20.80;52.20;;;;;;5077844;28;20021;-70
2024/02/15 13:04:30;;;;;;;2.60;1.23;;;20.80;52.20;;;;;;5080742;28;20131;-68
2024/02/15 13:06:56;;;;;;;3.50;1.30;;;20.80;52.20;;;;;;5077295;28;20029;-70
2024/02/15 13:09:23;;;;;;;3.50;1.40;;;20.80;52.20;;;;;;5079746;28;20036;-69
2024/02/15 13:11:49;;;;;;;4.28;1.40;;;20.80;52.20;;;;;;5062266;28;20028;-67
2024/02/15 13:14:15;;;;;;;3.17;1.45;;;20.80;52.20;;;;;;5069211;28;20553;-66
2024/02/15 13:16:43;;;;;;;4.00;1.38;;;20.80;52.20;;;;;;5077917;28;20024;-67
2024/02/15 13:19:08;;;;;;;2.78;1.40;;;20.90;52.20;;;;;;5082336;28;20034;-67
2024/02/15 13:21:34;;;;;;;2.97;1.40;;;20.90;52.20;;;;;;5082900;28;20024;-67